Berlik, Kazakhstan
Current Conditions -  °F | °C
As of 10:00 AM on Friday 19 Dec 2014 (Local Time) from UACC Reporting Station
Haze Haze  
Wind Chill: -9°   Ceiling: Unl
Heat Index: -9°   Visibility: 3mi
Dew Point: -15°   Wind: 2mph
Humidity: 77%   Direction: 100°E
Pressure: 30.42"   Gusts: NA
Location:  49.88°N, 69.52°E
Report Text: UACC 190400Z 10001MPS 5000 BR SCT007 M23/M26 Q1030 R04/8/0065NOSIG RMK QFE741/0988
Loading
Personal Weather Stations






























Interactive Weather Map New forecast layout! Learn more

10-Day Weather Forecast

Advertisements
Track Severe Weather on mobile